createdAt,value
2022-09-12T00:03:19.545Z,5.2
2022-09-12T00:08:19.542Z,5.2
2022-09-12T00:13:19.546Z,4.9
2022-09-12T00:18:19.549Z,6.0
2022-09-12T00:23:19.545Z,6.6
2022-09-12T00:28:19.556Z,6.6
2022-09-12T00:33:19.551Z,7.1
2022-09-12T00:38:19.561Z,7.2
2022-09-12T00:43:19.559Z,7.3
2022-09-12T00:48:19.564Z,6.8
2022-09-12T00:53:19.561Z,5.8
2022-09-12T00:58:19.564Z,6.0
2022-09-12T01:03:19.562Z,6.4
2022-09-12T01:08:19.566Z,7.5
2022-09-12T01:13:19.573Z,6.9
2022-09-12T01:18:19.576Z,5.6
2022-09-12T01:23:19.574Z,6.0
2022-09-12T01:28:19.576Z,8.0
2022-09-12T01:33:19.580Z,7.3
2022-09-12T01:38:19.637Z,8.2
2022-09-12T01:43:19.584Z,7.4
2022-09-12T01:48:19.592Z,8.4
2022-09-12T01:53:19.593Z,8.7
2022-09-12T01:58:19.599Z,8.5
2022-09-12T02:03:19.598Z,9.2
2022-09-12T02:08:19.598Z,8.4
2022-09-12T02:13:19.603Z,7.6
2022-09-12T02:18:19.608Z,7.0
2022-09-12T02:23:19.602Z,6.5
2022-09-12T02:28:19.607Z,6.4
2022-09-12T02:33:19.612Z,7.5
2022-09-12T02:38:19.615Z,8.4
2022-09-12T02:43:19.613Z,7.3
2022-09-12T02:48:19.660Z,7.2
2022-09-12T02:53:19.620Z,7.6
2022-09-12T02:58:19.624Z,8.3
2022-09-12T03:03:19.628Z,9.3
2022-09-12T03:08:19.633Z,8.9
2022-09-12T03:13:19.642Z,8.0
2022-09-12T03:18:19.633Z,8.4
2022-09-12T03:23:19.639Z,8.3
2022-09-12T03:28:19.639Z,8.6
2022-09-12T03:33:19.641Z,8.6
2022-09-12T03:38:19.649Z,8.7
2022-09-12T03:43:19.646Z,9.9
2022-09-12T03:48:19.652Z,10.2
2022-09-12T03:53:19.659Z,10.3
2022-09-12T03:58:19.658Z,10.1
2022-09-12T04:03:19.664Z,9.8
2022-09-12T04:08:19.664Z,10.1
2022-09-12T04:13:19.665Z,10.2
2022-09-12T04:18:19.670Z,9.8
2022-09-12T04:23:19.681Z,9.2
2022-09-12T04:28:19.678Z,9.0
2022-09-12T04:33:19.680Z,9.6
2022-09-12T04:38:19.684Z,10.3
2022-09-12T04:43:19.682Z,9.3
2022-09-12T04:48:19.691Z,10.2
2022-09-12T04:53:19.689Z,11.8
2022-09-12T04:58:19.691Z,11.9
2022-09-12T05:03:19.688Z,10.8
2022-09-12T05:08:19.700Z,10.6
2022-09-12T05:13:19.708Z,10.0
2022-09-12T05:18:19.727Z,10.9
2022-09-12T05:23:19.701Z,10.4
2022-09-12T05:28:19.711Z,11.6
2022-09-12T05:33:24.482Z,12.8
2022-09-12T05:38:19.712Z,14.0
2022-09-12T05:43:19.714Z,13.9
2022-09-12T05:48:19.723Z,14.3
2022-09-12T05:53:19.722Z,14.9
2022-09-12T05:58:19.729Z,15.6
2022-09-12T06:03:19.732Z,16.2
2022-09-12T06:08:19.737Z,17.2
2022-09-12T06:13:19.739Z,17.3
2022-09-12T06:18:19.742Z,19.2
2022-09-12T06:23:19.743Z,18.3
2022-09-12T06:28:19.747Z,19.5
2022-09-12T06:33:19.746Z,18.8
2022-09-12T06:38:19.751Z,20.0
2022-09-12T06:43:19.752Z,19.5
2022-09-12T06:48:19.758Z,19.0
2022-09-12T06:53:19.762Z,20.2
2022-09-12T06:58:19.769Z,19.4
2022-09-12T07:03:19.772Z,20.7
2022-09-12T07:08:19.766Z,20.4
2022-09-12T07:13:19.780Z,20.1
2022-09-12T07:18:19.774Z,21.9
2022-09-12T07:23:19.790Z,22.0
2022-09-12T07:28:19.793Z,22.4
2022-09-12T07:33:19.801Z,21.3
2022-09-12T07:38:19.802Z,21.3
2022-09-12T07:43:19.807Z,21.7
2022-09-12T07:48:19.807Z,20.8
2022-09-12T07:53:19.817Z,20.6
2022-09-12T07:58:19.817Z,20.4
2022-09-12T08:03:19.823Z,21.0
2022-09-12T08:08:19.831Z,18.8
2022-09-12T08:13:19.838Z,17.4
2022-09-12T08:18:19.847Z,18.8
2022-09-12T08:23:19.851Z,16.3
2022-09-12T08:28:19.847Z,16.4
2022-09-12T08:33:19.860Z,16.6
2022-09-12T08:38:19.862Z,15.4
2022-09-12T08:43:19.868Z,15.6
2022-09-12T08:48:19.871Z,15.6
2022-09-12T08:53:19.877Z,14.5
2022-09-12T08:58:19.878Z,14.2
2022-09-12T09:03:19.879Z,13.3
2022-09-12T09:08:19.890Z,13.9
2022-09-12T09:13:19.888Z,13.0
2022-09-12T09:18:19.900Z,12.3
2022-09-12T09:23:19.896Z,13.0
2022-09-12T09:28:19.900Z,12.6
2022-09-12T09:33:19.905Z,11.8
2022-09-12T09:38:19.910Z,10.8
2022-09-12T09:43:19.913Z,11.6
2022-09-12T09:48:19.914Z,10.4
2022-09-12T09:53:19.920Z,9.7
2022-09-12T09:58:19.922Z,9.5
2022-09-12T10:03:19.933Z,8.8
2022-09-12T10:08:19.937Z,7.7
2022-09-12T10:13:19.937Z,7.5
2022-09-12T10:18:19.944Z,8.1
2022-09-12T10:23:19.946Z,7.3
2022-09-12T10:28:19.946Z,6.8
2022-09-12T10:33:19.953Z,6.5
2022-09-12T10:38:19.959Z,7.2
2022-09-12T10:43:19.961Z,6.3
2022-09-12T10:48:19.863Z,5.8
2022-09-12T10:53:19.880Z,5.8
2022-09-12T10:58:19.871Z,6.0
2022-09-12T11:03:19.879Z,5.7
2022-09-12T11:08:19.880Z,6.1
2022-09-12T11:13:19.884Z,6.3
2022-09-12T11:18:19.889Z,5.8
2022-09-12T11:23:19.890Z,5.9
2022-09-12T11:28:19.919Z,5.1
2022-09-12T11:33:19.896Z,5.8
2022-09-12T11:38:19.899Z,5.9
2022-09-12T11:43:19.907Z,5.0
2022-09-12T11:48:19.896Z,4.1
2022-09-12T11:53:19.911Z,3.9
2022-09-12T11:58:19.914Z,4.1
2022-09-12T12:03:19.951Z,4.2
2022-09-12T12:08:19.920Z,3.8
2022-09-12T12:13:20.089Z,3.8
2022-09-12T12:18:19.927Z,2.9
2022-09-12T12:23:19.934Z,3.2
2022-09-12T12:28:19.937Z,3.3
2022-09-12T12:33:19.951Z,2.6
2022-09-12T12:38:19.949Z,2.9
2022-09-12T12:43:19.950Z,2.9
2022-09-12T12:48:19.948Z,2.4
2022-09-12T12:53:19.953Z,2.9
2022-09-12T12:58:19.951Z,2.5
2022-09-12T13:03:19.962Z,3.3
2022-09-12T13:08:19.990Z,3.3
2022-09-12T13:13:19.979Z,2.4
2022-09-12T13:18:19.981Z,2.7
2022-09-12T13:23:19.980Z,2.6
2022-09-12T13:28:19.973Z,3.1
2022-09-12T13:33:19.990Z,2.0
2022-09-12T13:38:20.009Z,2.8
2022-09-12T13:43:19.998Z,2.7
2022-09-12T13:53:20.004Z,2.5
2022-09-12T13:58:19.997Z,2.5
2022-09-12T14:03:20.008Z,2.9
2022-09-12T14:08:20.006Z,3.5
2022-09-12T14:13:20.013Z,3.1
2022-09-12T14:18:20.013Z,3.3
2022-09-12T14:23:20.019Z,3.4
2022-09-12T14:33:20.017Z,3.9
2022-09-12T14:38:20.034Z,3.8
2022-09-12T14:43:20.031Z,3.4
2022-09-12T14:48:20.034Z,3.2
2022-09-12T14:53:20.031Z,3.6
2022-09-12T14:58:20.039Z,3.7
2022-09-12T15:03:20.044Z,3.6
2022-09-12T15:08:20.045Z,3.5
2022-09-12T15:13:20.040Z,4.1
2022-09-12T15:18:20.042Z,3.9
2022-09-12T15:23:20.045Z,3.3
2022-09-12T15:28:20.051Z,3.5
2022-09-12T15:33:20.055Z,3.5
2022-09-12T15:38:23.157Z,3.1
2022-09-12T15:43:20.057Z,2.8
2022-09-12T15:48:20.060Z,2.7
2022-09-12T15:53:20.063Z,2.5
2022-09-12T15:58:20.069Z,3.1
2022-09-12T16:03:20.085Z,3.1
2022-09-12T16:08:20.074Z,2.8
2022-09-12T16:13:20.082Z,2.2
2022-09-12T16:18:20.081Z,2.3
2022-09-12T16:23:20.090Z,2.7
2022-09-12T16:28:20.086Z,3.1
2022-09-12T16:33:20.088Z,2.4
2022-09-12T16:38:20.095Z,2.1
2022-09-12T16:43:20.099Z,2.0
2022-09-12T16:48:20.094Z,2.1
2022-09-12T16:53:20.099Z,1.5
2022-09-12T16:58:20.100Z,1.7
2022-09-12T17:03:20.104Z,1.8
2022-09-12T17:08:20.105Z,1.9
2022-09-12T17:13:20.109Z,1.9
2022-09-12T17:18:20.117Z,2.5
2022-09-12T17:23:20.111Z,2.1
2022-09-12T17:28:20.115Z,2.1
2022-09-12T17:33:20.116Z,2.1
2022-09-12T17:38:24.551Z,2.6
2022-09-12T17:48:20.217Z,2.6
2022-09-12T17:53:20.223Z,3.4
2022-09-12T17:58:20.224Z,3.3
2022-09-12T18:03:20.244Z,3.2
2022-09-12T18:08:20.225Z,3.5
2022-09-12T18:13:20.232Z,3.6
2022-09-12T18:18:20.232Z,4.1
2022-09-12T18:23:20.234Z,3.8
2022-09-12T18:28:20.235Z,4.1
2022-09-12T18:33:23.937Z,3.5
2022-09-12T18:38:20.240Z,4.3
2022-09-12T18:43:20.241Z,3.8
2022-09-12T18:48:20.247Z,4.2
2022-09-12T18:53:20.245Z,4.3
2022-09-12T18:58:20.251Z,4.5
2022-09-12T19:03:20.249Z,4.1
2022-09-12T19:08:20.252Z,4.5
2022-09-12T19:13:20.251Z,4.3
2022-09-12T19:18:20.253Z,4.3
2022-09-12T19:23:20.262Z,5.1
2022-09-12T19:28:20.259Z,4.4
2022-09-12T19:33:20.252Z,4.5
2022-09-12T19:38:20.263Z,5.1
2022-09-12T19:43:20.267Z,5.5
2022-09-12T19:48:20.269Z,5.6
2022-09-12T19:53:20.266Z,6.0
2022-09-12T19:58:20.901Z,5.6
2022-09-12T20:03:20.268Z,5.5
2022-09-12T20:08:20.280Z,5.4
2022-09-12T20:13:20.275Z,5.0
2022-09-12T20:18:20.279Z,5.5
2022-09-12T20:23:20.279Z,4.9
2022-09-12T20:28:20.287Z,5.6
2022-09-12T20:33:20.282Z,6.0
2022-09-12T20:38:20.287Z,4.8
2022-09-12T20:43:20.287Z,5.8
2022-09-12T20:48:20.294Z,5.8
2022-09-12T20:53:20.300Z,6.1
2022-09-12T20:58:20.294Z,6.6
2022-09-12T21:03:20.302Z,5.9
2022-09-12T21:08:20.302Z,6.4
2022-09-12T21:13:20.302Z,5.8
2022-09-12T21:18:20.303Z,5.8
2022-09-12T21:23:20.305Z,6.2
2022-09-12T21:28:20.311Z,5.9
2022-09-12T21:33:20.312Z,6.5
2022-09-12T21:38:20.314Z,5.7
2022-09-12T21:43:20.316Z,6.1
2022-09-12T21:48:20.324Z,6.0
2022-09-12T21:53:20.327Z,5.9
2022-09-12T21:58:20.326Z,5.7
2022-09-12T22:03:20.330Z,6.2
2022-09-12T22:08:20.329Z,6.5
2022-09-12T22:13:20.334Z,6.5
2022-09-12T22:18:20.336Z,6.9
2022-09-12T22:23:24.586Z,7.0
2022-09-12T22:28:20.344Z,7.5
2022-09-12T22:33:20.343Z,8.8
2022-09-12T22:38:20.348Z,9.4
2022-09-12T22:43:20.361Z,9.4
2022-09-12T22:48:20.358Z,7.8
2022-09-12T22:53:20.361Z,8.3
2022-09-12T22:58:20.367Z,7.6
2022-09-12T23:03:20.491Z,8.9
2022-09-12T23:08:20.370Z,9.9
2022-09-12T23:13:20.374Z,8.3
2022-09-12T23:18:20.371Z,7.6
2022-09-12T23:23:20.375Z,7.0
2022-09-12T23:28:20.375Z,7.9
2022-09-12T23:33:20.389Z,8.8
2022-09-12T23:38:20.386Z,8.8
2022-09-12T23:43:20.386Z,8.2
2022-09-12T23:48:20.392Z,8.5
2022-09-12T23:53:20.390Z,8.5
2022-09-12T23:58:20.395Z,8.0
